sensor_id;sensor_type;location;lat;lon;timestamp;P1;durP1;ratioP1;P2;durP2;ratioP2
18102;SDS011;9178;51.120;6.192;2023-07-29T00:01:31;8.18;;;2.40;;
18102;SDS011;9178;51.120;6.192;2023-07-29T00:03:59;3.00;;;1.77;;
18102;SDS011;9178;51.120;6.192;2023-07-29T00:06:26;3.53;;;1.92;;
18102;SDS011;9178;51.120;6.192;2023-07-29T00:08:53;2.67;;;1.58;;
18102;SDS011;9178;51.120;6.192;2023-07-29T00:11:20;5.90;;;1.98;;
18102;SDS011;9178;51.120;6.192;2023-07-29T00:13:46;5.07;;;2.58;;
18102;SDS011;9178;51.120;6.192;2023-07-29T00:16:15;7.15;;;2.40;;
18102;SDS011;9178;51.120;6.192;2023-07-29T00:18:43;2.58;;;1.40;;
18102;SDS011;9178;51.120;6.192;2023-07-29T00:21:10;1.85;;;1.70;;
18102;SDS011;9178;51.120;6.192;2023-07-29T00:23:37;4.90;;;1.35;;
18102;SDS011;9178;51.120;6.192;2023-07-29T00:26:04;8.10;;;2.10;;
18102;SDS011;9178;51.120;6.192;2023-07-29T00:28:31;4.97;;;1.40;;
18102;SDS011;9178;51.120;6.192;2023-07-29T00:31:00;4.18;;;1.40;;
18102;SDS011;9178;51.120;6.192;2023-07-29T00:33:27;2.03;;;1.23;;
18102;SDS011;9178;51.120;6.192;2023-07-29T00:35:55;8.90;;;1.48;;
18102;SDS011;9178;51.120;6.192;2023-07-29T00:38:26;5.43;;;1.90;;
18102;SDS011;9178;51.120;6.192;2023-07-29T00:40:53;5.47;;;1.65;;
18102;SDS011;9178;51.120;6.192;2023-07-29T00:43:20;5.63;;;1.35;;
18102;SDS011;9178;51.120;6.192;2023-07-29T00:45:47;3.00;;;1.58;;
18102;SDS011;9178;51.120;6.192;2023-07-29T00:48:14;5.95;;;2.05;;
18102;SDS011;9178;51.120;6.192;2023-07-29T00:50:41;7.68;;;1.40;;
18102;SDS011;9178;51.120;6.192;2023-07-29T00:53:09;4.80;;;1.77;;
18102;SDS011;9178;51.120;6.192;2023-07-29T00:55:36;4.65;;;1.33;;
18102;SDS011;9178;51.120;6.192;2023-07-29T00:58:03;4.53;;;1.45;;
18102;SDS011;9178;51.120;6.192;2023-07-29T01:00:30;4.00;;;1.45;;
18102;SDS011;9178;51.120;6.192;2023-07-29T01:02:57;4.22;;;1.70;;
18102;SDS011;9178;51.120;6.192;2023-07-29T01:05:25;5.30;;;1.73;;
18102;SDS011;9178;51.120;6.192;2023-07-29T01:07:59;4.72;;;1.58;;
18102;SDS011;9178;51.120;6.192;2023-07-29T01:10:36;3.90;;;1.80;;
18102;SDS011;9178;51.120;6.192;2023-07-29T01:13:13;2.17;;;2.08;;
18102;SDS011;9178;51.120;6.192;2023-07-29T01:15:45;1.98;;;1.88;;
18102;SDS011;9178;51.120;6.192;2023-07-29T01:18:21;3.42;;;2.00;;
18102;SDS011;9178;51.120;6.192;2023-07-29T01:20:53;3.80;;;1.92;;
18102;SDS011;9178;51.120;6.192;2023-07-29T01:23:24;4.40;;;1.75;;
18102;SDS011;9178;51.120;6.192;2023-07-29T01:25:52;3.17;;;2.00;;
18102;SDS011;9178;51.120;6.192;2023-07-29T01:28:19;5.28;;;2.25;;
18102;SDS011;9178;51.120;6.192;2023-07-29T01:30:46;2.70;;;1.88;;
18102;SDS011;9178;51.120;6.192;2023-07-29T01:33:20;1.95;;;1.83;;
18102;SDS011;9178;51.120;6.192;2023-07-29T01:35:52;4.60;;;1.77;;
18102;SDS011;9178;51.120;6.192;2023-07-29T01:38:27;5.15;;;2.28;;
18102;SDS011;9178;51.120;6.192;2023-07-29T01:40:58;6.72;;;3.15;;
18102;SDS011;9178;51.120;6.192;2023-07-29T01:43:28;6.30;;;2.65;;
18102;SDS011;9178;51.120;6.192;2023-07-29T01:45:57;3.17;;;1.77;;
18102;SDS011;9178;51.120;6.192;2023-07-29T01:48:24;10.15;;;3.63;;
18102;SDS011;9178;51.120;6.192;2023-07-29T01:50:52;3.72;;;2.08;;
18102;SDS011;9178;51.120;6.192;2023-07-29T01:53:19;2.03;;;1.80;;
18102;SDS011;9178;51.120;6.192;2023-07-29T01:55:47;5.45;;;2.13;;
18102;SDS011;9178;51.120;6.192;2023-07-29T01:58:14;5.25;;;2.30;;
18102;SDS011;9178;51.120;6.192;2023-07-29T02:00:42;6.32;;;2.00;;
18102;SDS011;9178;51.120;6.192;2023-07-29T02:03:10;4.80;;;2.10;;
18102;SDS011;9178;51.120;6.192;2023-07-29T02:05:37;5.07;;;2.00;;
18102;SDS011;9178;51.120;6.192;2023-07-29T02:08:07;5.63;;;2.85;;
18102;SDS011;9178;51.120;6.192;2023-07-29T02:10:34;8.95;;;2.50;;
18102;SDS011;9178;51.120;6.192;2023-07-29T02:13:02;4.53;;;2.80;;
18102;SDS011;9178;51.120;6.192;2023-07-29T02:15:29;6.97;;;2.90;;
18102;SDS011;9178;51.120;6.192;2023-07-29T02:17:59;8.13;;;2.80;;
18102;SDS011;9178;51.120;6.192;2023-07-29T02:20:27;6.30;;;3.20;;
18102;SDS011;9178;51.120;6.192;2023-07-29T02:22:54;5.18;;;3.65;;
18102;SDS011;9178;51.120;6.192;2023-07-29T02:25:21;2.42;;;2.33;;
18102;SDS011;9178;51.120;6.192;2023-07-29T02:27:48;2.45;;;2.25;;
18102;SDS011;9178;51.120;6.192;2023-07-29T02:30:16;4.10;;;3.20;;
18102;SDS011;9178;51.120;6.192;2023-07-29T02:32:43;3.58;;;3.10;;
18102;SDS011;9178;51.120;6.192;2023-07-29T02:35:10;6.57;;;2.95;;
18102;SDS011;9178;51.120;6.192;2023-07-29T02:37:38;12.77;;;3.38;;
18102;SDS011;9178;51.120;6.192;2023-07-29T02:40:05;5.40;;;2.30;;
18102;SDS011;9178;51.120;6.192;2023-07-29T02:42:33;8.25;;;3.08;;
18102;SDS011;9178;51.120;6.192;2023-07-29T02:45:07;5.03;;;3.00;;
18102;SDS011;9178;51.120;6.192;2023-07-29T02:47:39;5.10;;;3.10;;
18102;SDS011;9178;51.120;6.192;2023-07-29T02:50:09;3.13;;;2.90;;
18102;SDS011;9178;51.120;6.192;2023-07-29T02:52:38;10.65;;;3.50;;
18102;SDS011;9178;51.120;6.192;2023-07-29T02:55:06;14.52;;;5.15;;
18102;SDS011;9178;51.120;6.192;2023-07-29T02:57:38;5.80;;;3.17;;
18102;SDS011;9178;51.120;6.192;2023-07-29T03:00:08;5.38;;;3.47;;
18102;SDS011;9178;51.120;6.192;2023-07-29T03:02:38;5.32;;;3.17;;
18102;SDS011;9178;51.120;6.192;2023-07-29T03:05:05;5.82;;;2.70;;
18102;SDS011;9178;51.120;6.192;2023-07-29T03:07:36;3.53;;;3.10;;
18102;SDS011;9178;51.120;6.192;2023-07-29T03:10:03;7.63;;;3.90;;
18102;SDS011;9178;51.120;6.192;2023-07-29T03:12:30;5.53;;;3.78;;
18102;SDS011;9178;51.120;6.192;2023-07-29T03:14:57;8.88;;;4.18;;
18102;SDS011;9178;51.120;6.192;2023-07-29T03:17:25;7.53;;;3.80;;
18102;SDS011;9178;51.120;6.192;2023-07-29T03:19:55;4.30;;;3.90;;
18102;SDS011;9178;51.120;6.192;2023-07-29T03:22:22;7.00;;;4.38;;
18102;SDS011;9178;51.120;6.192;2023-07-29T03:24:49;6.43;;;3.70;;
18102;SDS011;9178;51.120;6.192;2023-07-29T03:27:16;6.43;;;3.30;;
18102;SDS011;9178;51.120;6.192;2023-07-29T03:29:44;5.20;;;3.60;;
18102;SDS011;9178;51.120;6.192;2023-07-29T03:32:12;8.50;;;3.47;;
18102;SDS011;9178;51.120;6.192;2023-07-29T03:34:41;8.55;;;3.88;;
18102;SDS011;9178;51.120;6.192;2023-07-29T03:37:09;7.45;;;3.90;;
18102;SDS011;9178;51.120;6.192;2023-07-29T03:39:36;5.40;;;3.50;;
18102;SDS011;9178;51.120;6.192;2023-07-29T03:42:03;4.30;;;3.70;;
18102;SDS011;9178;51.120;6.192;2023-07-29T03:44:33;4.07;;;3.70;;
18102;SDS011;9178;51.120;6.192;2023-07-29T03:47:00;3.85;;;3.17;;
18102;SDS011;9178;51.120;6.192;2023-07-29T03:49:27;7.20;;;4.05;;
18102;SDS011;9178;51.120;6.192;2023-07-29T03:51:55;6.25;;;3.63;;
18102;SDS011;9178;51.120;6.192;2023-07-29T03:54:23;5.00;;;3.20;;
18102;SDS011;9178;51.120;6.192;2023-07-29T03:56:52;4.90;;;3.55;;
18102;SDS011;9178;51.120;6.192;2023-07-29T03:59:20;3.58;;;3.28;;
18102;SDS011;9178;51.120;6.192;2023-07-29T04:01:47;5.35;;;3.47;;
18102;SDS011;9178;51.120;6.192;2023-07-29T04:04:14;3.78;;;3.40;;
18102;SDS011;9178;51.120;6.192;2023-07-29T04:06:43;5.25;;;2.95;;
18102;SDS011;9178;51.120;6.192;2023-07-29T04:09:10;3.40;;;2.95;;
18102;SDS011;9178;51.120;6.192;2023-07-29T04:11:38;7.20;;;3.72;;
18102;SDS011;9178;51.120;6.192;2023-07-29T04:14:05;4.05;;;3.40;;
18102;SDS011;9178;51.120;6.192;2023-07-29T04:16:32;4.40;;;3.10;;
18102;SDS011;9178;51.120;6.192;2023-07-29T04:18:59;3.25;;;2.50;;
18102;SDS011;9178;51.120;6.192;2023-07-29T04:21:26;3.00;;;2.75;;
18102;SDS011;9178;51.120;6.192;2023-07-29T04:23:53;6.78;;;2.72;;
18102;SDS011;9178;51.120;6.192;2023-07-29T04:26:20;3.35;;;3.00;;
18102;SDS011;9178;51.120;6.192;2023-07-29T04:28:51;3.78;;;2.90;;
18102;SDS011;9178;51.120;6.192;2023-07-29T04:31:18;5.82;;;2.88;;
18102;SDS011;9178;51.120;6.192;2023-07-29T04:33:45;3.53;;;2.40;;
18102;SDS011;9178;51.120;6.192;2023-07-29T04:36:12;2.75;;;2.55;;
18102;SDS011;9178;51.120;6.192;2023-07-29T04:38:41;7.10;;;2.58;;
18102;SDS011;9178;51.120;6.192;2023-07-29T04:41:07;2.20;;;1.90;;
18102;SDS011;9178;51.120;6.192;2023-07-29T04:43:36;3.95;;;2.50;;
18102;SDS011;9178;51.120;6.192;2023-07-29T04:46:07;2.60;;;2.00;;
18102;SDS011;9178;51.120;6.192;2023-07-29T04:48:34;4.63;;;2.50;;
18102;SDS011;9178;51.120;6.192;2023-07-29T04:51:01;5.15;;;2.30;;
18102;SDS011;9178;51.120;6.192;2023-07-29T04:53:29;3.10;;;2.08;;
18102;SDS011;9178;51.120;6.192;2023-07-29T04:55:55;5.72;;;2.38;;
18102;SDS011;9178;51.120;6.192;2023-07-29T04:58:22;2.72;;;2.08;;
18102;SDS011;9178;51.120;6.192;2023-07-29T05:00:59;3.60;;;2.17;;
18102;SDS011;9178;51.120;6.192;2023-07-29T05:03:27;8.15;;;2.55;;
18102;SDS011;9178;51.120;6.192;2023-07-29T05:05:54;5.15;;;2.58;;
18102;SDS011;9178;51.120;6.192;2023-07-29T05:08:22;4.60;;;2.53;;
18102;SDS011;9178;51.120;6.192;2023-07-29T05:10:49;4.65;;;2.25;;
18102;SDS011;9178;51.120;6.192;2023-07-29T05:13:16;4.22;;;1.80;;
18102;SDS011;9178;51.120;6.192;2023-07-29T05:15:43;3.28;;;1.80;;
18102;SDS011;9178;51.120;6.192;2023-07-29T05:18:10;2.85;;;1.70;;
18102;SDS011;9178;51.120;6.192;2023-07-29T05:20:40;5.90;;;1.95;;
18102;SDS011;9178;51.120;6.192;2023-07-29T05:23:07;3.63;;;1.95;;
18102;SDS011;9178;51.120;6.192;2023-07-29T05:25:34;3.33;;;2.05;;
18102;SDS011;9178;51.120;6.192;2023-07-29T05:28:01;3.28;;;1.80;;
18102;SDS011;9178;51.120;6.192;2023-07-29T05:30:29;4.60;;;2.08;;
18102;SDS011;9178;51.120;6.192;2023-07-29T05:32:56;6.35;;;2.40;;
18102;SDS011;9178;51.120;6.192;2023-07-29T05:35:23;3.53;;;2.22;;
18102;SDS011;9178;51.120;6.192;2023-07-29T05:37:52;5.28;;;2.20;;
18102;SDS011;9178;51.120;6.192;2023-07-29T05:40:19;3.83;;;1.85;;
18102;SDS011;9178;51.120;6.192;2023-07-29T05:42:46;5.00;;;2.20;;
18102;SDS011;9178;51.120;6.192;2023-07-29T05:45:13;9.07;;;2.40;;
18102;SDS011;9178;51.120;6.192;2023-07-29T05:47:40;2.22;;;1.98;;
18102;SDS011;9178;51.120;6.192;2023-07-29T05:50:07;3.45;;;2.10;;
18102;SDS011;9178;51.120;6.192;2023-07-29T05:52:35;5.25;;;2.30;;
18102;SDS011;9178;51.120;6.192;2023-07-29T05:55:04;4.43;;;2.40;;
18102;SDS011;9178;51.120;6.192;2023-07-29T05:57:32;3.20;;;2.50;;
18102;SDS011;9178;51.120;6.192;2023-07-29T05:59:59;4.28;;;2.63;;
18102;SDS011;9178;51.120;6.192;2023-07-29T06:02:26;4.75;;;2.92;;
18102;SDS011;9178;51.120;6.192;2023-07-29T06:04:52;3.83;;;3.08;;
18102;SDS011;9178;51.120;6.192;2023-07-29T06:07:19;3.20;;;2.67;;
18102;SDS011;9178;51.120;6.192;2023-07-29T06:09:47;3.90;;;2.70;;
18102;SDS011;9178;51.120;6.192;2023-07-29T06:12:15;3.67;;;2.90;;
18102;SDS011;9178;51.120;6.192;2023-07-29T06:14:42;5.20;;;2.95;;
18102;SDS011;9178;51.120;6.192;2023-07-29T06:17:09;4.82;;;2.83;;
18102;SDS011;9178;51.120;6.192;2023-07-29T06:19:36;5.13;;;2.47;;
18102;SDS011;9178;51.120;6.192;2023-07-29T06:22:04;4.10;;;2.80;;
18102;SDS011;9178;51.120;6.192;2023-07-29T06:24:31;2.67;;;2.47;;
18102;SDS011;9178;51.120;6.192;2023-07-29T06:26:58;3.97;;;3.10;;
18102;SDS011;9178;51.120;6.192;2023-07-29T06:29:26;4.45;;;2.80;;
18102;SDS011;9178;51.120;6.192;2023-07-29T06:31:53;5.00;;;2.70;;
18102;SDS011;9178;51.120;6.192;2023-07-29T06:34:20;5.32;;;3.33;;
18102;SDS011;9178;51.120;6.192;2023-07-29T06:36:47;3.53;;;2.20;;
18102;SDS011;9178;51.120;6.192;2023-07-29T06:39:14;6.20;;;2.15;;
18102;SDS011;9178;51.120;6.192;2023-07-29T06:41:41;3.88;;;2.13;;
18102;SDS011;9178;51.120;6.192;2023-07-29T06:44:08;3.03;;;2.30;;
18102;SDS011;9178;51.120;6.192;2023-07-29T06:46:36;3.85;;;1.80;;
18102;SDS011;9178;51.120;6.192;2023-07-29T06:49:03;2.75;;;2.20;;
18102;SDS011;9178;51.120;6.192;2023-07-29T06:51:31;2.40;;;2.20;;
18102;SDS011;9178;51.120;6.192;2023-07-29T06:54:00;3.97;;;2.10;;
18102;SDS011;9178;51.120;6.192;2023-07-29T06:56:27;4.97;;;1.70;;
18102;SDS011;9178;51.120;6.192;2023-07-29T06:58:54;1.88;;;1.70;;
18102;SDS011;9178;51.120;6.192;2023-07-29T07:01:21;1.80;;;1.67;;
18102;SDS011;9178;51.120;6.192;2023-07-29T07:03:49;4.07;;;1.83;;
18102;SDS011;9178;51.120;6.192;2023-07-29T07:06:19;2.25;;;1.65;;
18102;SDS011;9178;51.120;6.192;2023-07-29T07:08:46;1.98;;;1.67;;
18102;SDS011;9178;51.120;6.192;2023-07-29T07:11:13;3.55;;;1.60;;
18102;SDS011;9178;51.120;6.192;2023-07-29T07:13:40;4.63;;;1.40;;
18102;SDS011;9178;51.120;6.192;2023-07-29T07:16:09;1.50;;;1.38;;
18102;SDS011;9178;51.120;6.192;2023-07-29T07:18:36;2.88;;;1.30;;
18102;SDS011;9178;51.120;6.192;2023-07-29T07:21:04;3.67;;;1.30;;
18102;SDS011;9178;51.120;6.192;2023-07-29T07:23:31;1.50;;;1.40;;
18102;SDS011;9178;51.120;6.192;2023-07-29T07:25:58;1.48;;;1.38;;
18102;SDS011;9178;51.120;6.192;2023-07-29T07:28:25;2.33;;;1.17;;
18102;SDS011;9178;51.120;6.192;2023-07-29T07:30:52;1.92;;;1.35;;
18102;SDS011;9178;51.120;6.192;2023-07-29T07:33:20;1.42;;;1.17;;
18102;SDS011;9178;51.120;6.192;2023-07-29T07:35:47;3.30;;;0.90;;
18102;SDS011;9178;51.120;6.192;2023-07-29T07:38:16;1.40;;;1.20;;
18102;SDS011;9178;51.120;6.192;2023-07-29T07:40:43;3.10;;;0.90;;
18102;SDS011;9178;51.120;6.192;2023-07-29T07:43:18;1.85;;;1.05;;
18102;SDS011;9178;51.120;6.192;2023-07-29T07:45:44;1.48;;;0.70;;
18102;SDS011;9178;51.120;6.192;2023-07-29T07:48:11;6.38;;;0.80;;
18102;SDS011;9178;51.120;6.192;2023-07-29T07:50:38;3.30;;;0.95;;
18102;SDS011;9178;51.120;6.192;2023-07-29T07:53:05;2.83;;;0.95;;
18102;SDS011;9178;51.120;6.192;2023-07-29T07:55:33;1.10;;;0.75;;
18102;SDS011;9178;51.120;6.192;2023-07-29T07:58:00;2.63;;;0.70;;
18102;SDS011;9178;51.120;6.192;2023-07-29T08:00:27;1.25;;;0.63;;
18102;SDS011;9178;51.120;6.192;2023-07-29T08:02:54;3.03;;;0.77;;
18102;SDS011;9178;51.120;6.192;2023-07-29T08:05:21;0.80;;;0.80;;
18102;SDS011;9178;51.120;6.192;2023-07-29T08:07:48;1.25;;;0.70;;
18102;SDS011;9178;51.120;6.192;2023-07-29T08:10:15;1.38;;;0.70;;
18102;SDS011;9178;51.120;6.192;2023-07-29T08:12:43;5.30;;;0.63;;
18102;SDS011;9178;51.120;6.192;2023-07-29T08:15:10;1.25;;;0.90;;
18102;SDS011;9178;51.120;6.192;2023-07-29T08:17:39;1.75;;;0.90;;
18102;SDS011;9178;51.120;6.192;2023-07-29T08:20:07;2.25;;;0.68;;
18102;SDS011;9178;51.120;6.192;2023-07-29T08:22:36;2.05;;;0.73;;
18102;SDS011;9178;51.120;6.192;2023-07-29T08:25:03;0.70;;;0.70;;
18102;SDS011;9178;51.120;6.192;2023-07-29T08:27:33;2.80;;;0.90;;
18102;SDS011;9178;51.120;6.192;2023-07-29T08:30:02;0.77;;;0.70;;
18102;SDS011;9178;51.120;6.192;2023-07-29T08:32:29;2.35;;;0.85;;
18102;SDS011;9178;51.120;6.192;2023-07-29T08:34:56;1.20;;;0.55;;
18102;SDS011;9178;51.120;6.192;2023-07-29T08:37:23;0.95;;;0.60;;
18102;SDS011;9178;51.120;6.192;2023-07-29T08:39:54;2.13;;;1.00;;
18102;SDS011;9178;51.120;6.192;2023-07-29T08:42:21;2.20;;;0.70;;
18102;SDS011;9178;51.120;6.192;2023-07-29T08:44:54;3.78;;;0.77;;
18102;SDS011;9178;51.120;6.192;2023-07-29T08:47:23;3.03;;;0.70;;
18102;SDS011;9178;51.120;6.192;2023-07-29T08:49:50;3.45;;;0.77;;
18102;SDS011;9178;51.120;6.192;2023-07-29T08:52:18;2.25;;;0.70;;
18102;SDS011;9178;51.120;6.192;2023-07-29T08:54:46;0.77;;;0.77;;
18102;SDS011;9178;51.120;6.192;2023-07-29T08:57:13;1.73;;;1.25;;
18102;SDS011;9178;51.120;6.192;2023-07-29T08:59:40;2.50;;;1.20;;
18102;SDS011;9178;51.120;6.192;2023-07-29T09:02:07;2.40;;;0.80;;
18102;SDS011;9178;51.120;6.192;2023-07-29T09:04:35;0.70;;;0.70;;
18102;SDS011;9178;51.120;6.192;2023-07-29T09:07:03;2.72;;;0.80;;
18102;SDS011;9178;51.120;6.192;2023-07-29T09:09:31;2.08;;;0.82;;
18102;SDS011;9178;51.120;6.192;2023-07-29T09:11:58;3.72;;;0.90;;
18102;SDS011;9178;51.120;6.192;2023-07-29T09:14:25;2.03;;;0.68;;
18102;SDS011;9178;51.120;6.192;2023-07-29T09:16:53;1.70;;;0.80;;
18102;SDS011;9178;51.120;6.192;2023-07-29T09:19:24;1.30;;;0.80;;
18102;SDS011;9178;51.120;6.192;2023-07-29T09:21:53;3.28;;;0.80;;
18102;SDS011;9178;51.120;6.192;2023-07-29T09:24:21;1.10;;;0.88;;
18102;SDS011;9178;51.120;6.192;2023-07-29T09:26:49;1.30;;;0.68;;
18102;SDS011;9178;51.120;6.192;2023-07-29T09:29:21;0.70;;;0.70;;
18102;SDS011;9178;51.120;6.192;2023-07-29T09:31:49;6.00;;;1.00;;
18102;SDS011;9178;51.120;6.192;2023-07-29T09:34:16;1.85;;;0.82;;
18102;SDS011;9178;51.120;6.192;2023-07-29T09:36:46;2.47;;;0.90;;
18102;SDS011;9178;51.120;6.192;2023-07-29T09:39:17;0.70;;;0.70;;
18102;SDS011;9178;51.120;6.192;2023-07-29T09:41:47;5.03;;;0.80;;
18102;SDS011;9178;51.120;6.192;2023-07-29T09:44:14;1.15;;;0.60;;
18102;SDS011;9178;51.120;6.192;2023-07-29T09:46:45;0.75;;;0.70;;
18102;SDS011;9178;51.120;6.192;2023-07-29T09:49:12;23.40;;;2.30;;
18102;SDS011;9178;51.120;6.192;2023-07-29T09:51:41;3.63;;;0.80;;
18102;SDS011;9178;51.120;6.192;2023-07-29T09:54:07;1.48;;;0.63;;
18102;SDS011;9178;51.120;6.192;2023-07-29T09:56:41;5.68;;;0.77;;
18102;SDS011;9178;51.120;6.192;2023-07-29T09:59:09;4.78;;;1.13;;
18102;SDS011;9178;51.120;6.192;2023-07-29T10:01:37;2.85;;;1.00;;
18102;SDS011;9178;51.120;6.192;2023-07-29T10:04:04;7.25;;;0.93;;
18102;SDS011;9178;51.120;6.192;2023-07-29T10:06:32;3.05;;;0.80;;
18102;SDS011;9178;51.120;6.192;2023-07-29T10:09:01;3.50;;;1.08;;
18102;SDS011;9178;51.120;6.192;2023-07-29T10:11:28;1.13;;;0.70;;
18102;SDS011;9178;51.120;6.192;2023-07-29T10:13:57;1.98;;;0.60;;
18102;SDS011;9178;51.120;6.192;2023-07-29T10:16:28;2.67;;;1.00;;
18102;SDS011;9178;51.120;6.192;2023-07-29T10:18:55;8.90;;;1.10;;
18102;SDS011;9178;51.120;6.192;2023-07-29T10:21:22;1.35;;;1.00;;
18102;SDS011;9178;51.120;6.192;2023-07-29T10:24:02;1.73;;;0.80;;
18102;SDS011;9178;51.120;6.192;2023-07-29T10:26:40;8.18;;;1.20;;
18102;SDS011;9178;51.120;6.192;2023-07-29T10:29:16;10.93;;;1.58;;
18102;SDS011;9178;51.120;6.192;2023-07-29T10:31:45;10.50;;;1.50;;
18102;SDS011;9178;51.120;6.192;2023-07-29T10:34:12;1.50;;;0.68;;
18102;SDS011;9178;51.120;6.192;2023-07-29T10:36:40;7.05;;;1.27;;
18102;SDS011;9178;51.120;6.192;2023-07-29T10:39:08;3.35;;;0.80;;
18102;SDS011;9178;51.120;6.192;2023-07-29T10:47:18;4.88;;;1.38;;
18102;SDS011;9178;51.120;6.192;2023-07-29T10:49:53;4.05;;;1.13;;
18102;SDS011;9178;51.120;6.192;2023-07-29T10:52:28;1.27;;;0.90;;
18102;SDS011;9178;51.120;6.192;2023-07-29T10:54:57;5.35;;;1.23;;
18102;SDS011;9178;51.120;6.192;2023-07-29T10:57:34;5.70;;;1.35;;
18102;SDS011;9178;51.120;6.192;2023-07-29T11:00:06;3.13;;;0.98;;
18102;SDS011;9178;51.120;6.192;2023-07-29T11:02:34;1.00;;;0.90;;
18102;SDS011;9178;51.120;6.192;2023-07-29T11:05:04;0.80;;;0.80;;
18102;SDS011;9178;51.120;6.192;2023-07-29T11:07:42;11.98;;;1.52;;
18102;SDS011;9178;51.120;6.192;2023-07-29T11:10:11;1.38;;;0.85;;
18102;SDS011;9178;51.120;6.192;2023-07-29T11:12:39;2.30;;;1.00;;
18102;SDS011;9178;51.120;6.192;2023-07-29T11:15:14;4.20;;;1.00;;
18102;SDS011;9178;51.120;6.192;2023-07-29T11:17:43;18.15;;;2.25;;
18102;SDS011;9178;51.120;6.192;2023-07-29T11:20:12;2.72;;;0.77;;
18102;SDS011;9178;51.120;6.192;2023-07-29T11:22:39;2.85;;;0.82;;
18102;SDS011;9178;51.120;6.192;2023-07-29T11:25:08;28.92;;;2.40;;
18102;SDS011;9178;51.120;6.192;2023-07-29T11:27:35;6.32;;;0.93;;
18102;SDS011;9178;51.120;6.192;2023-07-29T11:30:03;2.42;;;0.93;;
18102;SDS011;9178;51.120;6.192;2023-07-29T11:32:34;1.08;;;0.77;;
18102;SDS011;9178;51.120;6.192;2023-07-29T11:35:02;0.90;;;0.80;;
18102;SDS011;9178;51.120;6.192;2023-07-29T11:37:30;1.67;;;0.85;;
18102;SDS011;9178;51.120;6.192;2023-07-29T11:39:58;1.27;;;0.93;;
18102;SDS011;9178;51.120;6.192;2023-07-29T11:42:26;19.30;;;2.33;;
18102;SDS011;9178;51.120;6.192;2023-07-29T11:44:55;2.90;;;0.95;;
18102;SDS011;9178;51.120;6.192;2023-07-29T11:47:23;1.92;;;1.00;;
18102;SDS011;9178;51.120;6.192;2023-07-29T11:49:51;3.70;;;0.90;;
18102;SDS011;9178;51.120;6.192;2023-07-29T11:52:18;1.90;;;1.48;;
18102;SDS011;9178;51.120;6.192;2023-07-29T11:54:46;1.60;;;1.02;;
18102;SDS011;9178;51.120;6.192;2023-07-29T11:57:14;5.72;;;1.15;;
18102;SDS011;9178;51.120;6.192;2023-07-29T11:59:43;3.85;;;1.00;;
18102;SDS011;9178;51.120;6.192;2023-07-29T12:02:13;4.43;;;1.60;;
18102;SDS011;9178;51.120;6.192;2023-07-29T12:04:43;0.90;;;0.90;;
18102;SDS011;9178;51.120;6.192;2023-07-29T12:07:14;1.60;;;0.90;;
18102;SDS011;9178;51.120;6.192;2023-07-29T12:09:43;3.95;;;1.17;;
18102;SDS011;9178;51.120;6.192;2023-07-29T12:12:11;3.33;;;1.30;;
18102;SDS011;9178;51.120;6.192;2023-07-29T12:14:38;1.83;;;1.00;;
18102;SDS011;9178;51.120;6.192;2023-07-29T12:17:12;1.52;;;0.90;;
18102;SDS011;9178;51.120;6.192;2023-07-29T12:19:39;2.55;;;0.95;;
18102;SDS011;9178;51.120;6.192;2023-07-29T12:22:07;3.00;;;1.13;;
18102;SDS011;9178;51.120;6.192;2023-07-29T12:24:37;5.15;;;0.90;;
18102;SDS011;9178;51.120;6.192;2023-07-29T12:27:05;0.70;;;0.70;;
18102;SDS011;9178;51.120;6.192;2023-07-29T12:29:39;1.60;;;0.90;;
18102;SDS011;9178;51.120;6.192;2023-07-29T12:32:07;3.03;;;1.10;;
18102;SDS011;9178;51.120;6.192;2023-07-29T12:34:35;5.35;;;1.00;;
18102;SDS011;9178;51.120;6.192;2023-07-29T12:37:04;1.58;;;1.00;;
18102;SDS011;9178;51.120;6.192;2023-07-29T12:39:33;2.45;;;1.08;;
18102;SDS011;9178;51.120;6.192;2023-07-29T12:42:03;2.92;;;0.90;;
18102;SDS011;9178;51.120;6.192;2023-07-29T12:44:30;3.58;;;1.10;;
18102;SDS011;9178;51.120;6.192;2023-07-29T12:46:59;3.47;;;1.33;;
18102;SDS011;9178;51.120;6.192;2023-07-29T12:49:27;2.42;;;0.90;;
18102;SDS011;9178;51.120;6.192;2023-07-29T12:51:54;1.15;;;1.05;;
18102;SDS011;9178;51.120;6.192;2023-07-29T12:54:21;1.10;;;1.10;;
18102;SDS011;9178;51.120;6.192;2023-07-29T12:56:48;2.05;;;0.90;;
18102;SDS011;9178;51.120;6.192;2023-07-29T12:59:16;3.00;;;1.52;;
18102;SDS011;9178;51.120;6.192;2023-07-29T13:01:43;3.22;;;1.00;;
18102;SDS011;9178;51.120;6.192;2023-07-29T13:04:10;1.95;;;1.10;;
18102;SDS011;9178;51.120;6.192;2023-07-29T13:06:37;1.38;;;0.93;;
18102;SDS011;9178;51.120;6.192;2023-07-29T13:09:04;1.05;;;1.00;;
18102;SDS011;9178;51.120;6.192;2023-07-29T13:11:31;1.02;;;1.02;;
18102;SDS011;9178;51.120;6.192;2023-07-29T13:13:58;3.92;;;1.00;;
18102;SDS011;9178;51.120;6.192;2023-07-29T13:16:27;0.85;;;0.85;;
18102;SDS011;9178;51.120;6.192;2023-07-29T13:18:54;1.38;;;0.90;;
18102;SDS011;9178;51.120;6.192;2023-07-29T13:21:21;0.90;;;0.90;;
18102;SDS011;9178;51.120;6.192;2023-07-29T13:23:48;1.33;;;1.10;;
18102;SDS011;9178;51.120;6.192;2023-07-29T13:26:15;3.08;;;1.00;;
18102;SDS011;9178;51.120;6.192;2023-07-29T13:28:42;1.38;;;0.80;;
18102;SDS011;9178;51.120;6.192;2023-07-29T13:31:09;2.72;;;1.52;;
18102;SDS011;9178;51.120;6.192;2023-07-29T13:33:38;1.23;;;1.13;;
18102;SDS011;9178;51.120;6.192;2023-07-29T13:36:05;2.05;;;1.20;;
18102;SDS011;9178;51.120;6.192;2023-07-29T13:38:33;3.30;;;1.35;;
18102;SDS011;9178;51.120;6.192;2023-07-29T13:41:00;2.38;;;1.30;;
18102;SDS011;9178;51.120;6.192;2023-07-29T13:43:27;5.30;;;1.10;;
18102;SDS011;9178;51.120;6.192;2023-07-29T13:45:54;2.25;;;1.38;;
18102;SDS011;9178;51.120;6.192;2023-07-29T13:48:21;2.25;;;1.20;;
18102;SDS011;9178;51.120;6.192;2023-07-29T13:50:52;1.15;;;1.10;;
18102;SDS011;9178;51.120;6.192;2023-07-29T13:53:19;1.95;;;1.00;;
18102;SDS011;9178;51.120;6.192;2023-07-29T13:55:46;1.20;;;1.10;;
18102;SDS011;9178;51.120;6.192;2023-07-29T13:58:13;1.52;;;0.95;;
18102;SDS011;9178;51.120;6.192;2023-07-29T14:00:40;1.10;;;1.00;;
18102;SDS011;9178;51.120;6.192;2023-07-29T14:03:08;4.15;;;1.45;;
18102;SDS011;9178;51.120;6.192;2023-07-29T14:05:35;1.63;;;0.85;;
18102;SDS011;9178;51.120;6.192;2023-07-29T14:08:04;1.20;;;0.80;;
18102;SDS011;9178;51.120;6.192;2023-07-29T14:10:31;1.65;;;0.90;;
18102;SDS011;9178;51.120;6.192;2023-07-29T14:12:58;0.90;;;0.90;;
18102;SDS011;9178;51.120;6.192;2023-07-29T14:15:25;0.82;;;0.77;;
18102;SDS011;9178;51.120;6.192;2023-07-29T14:17:53;1.58;;;1.02;;
18102;SDS011;9178;51.120;6.192;2023-07-29T14:20:20;2.80;;;1.00;;
18102;SDS011;9178;51.120;6.192;2023-07-29T14:22:47;1.33;;;0.90;;
18102;SDS011;9178;51.120;6.192;2023-07-29T14:25:15;0.90;;;0.80;;
18102;SDS011;9178;51.120;6.192;2023-07-29T14:27:43;1.17;;;0.80;;
18102;SDS011;9178;51.120;6.192;2023-07-29T14:30:10;1.35;;;0.90;;
18102;SDS011;9178;51.120;6.192;2023-07-29T14:32:37;1.27;;;0.90;;
18102;SDS011;9178;51.120;6.192;2023-07-29T14:35:09;1.73;;;0.80;;
18102;SDS011;9178;51.120;6.192;2023-07-29T14:37:36;2.08;;;0.80;;
18102;SDS011;9178;51.120;6.192;2023-07-29T14:40:04;5.05;;;0.98;;
18102;SDS011;9178;51.120;6.192;2023-07-29T14:42:33;0.80;;;0.80;;
18102;SDS011;9178;51.120;6.192;2023-07-29T14:45:00;3.75;;;1.00;;
18102;SDS011;9178;51.120;6.192;2023-07-29T14:47:27;1.27;;;1.17;;
18102;SDS011;9178;51.120;6.192;2023-07-29T14:49:59;6.53;;;1.33;;
18102;SDS011;9178;51.120;6.192;2023-07-29T14:52:26;1.30;;;0.95;;
18102;SDS011;9178;51.120;6.192;2023-07-29T14:54:53;0.75;;;0.75;;
18102;SDS011;9178;51.120;6.192;2023-07-29T14:57:20;1.17;;;0.90;;
18102;SDS011;9178;51.120;6.192;2023-07-29T14:59:48;1.10;;;1.00;;
18102;SDS011;9178;51.120;6.192;2023-07-29T15:02:15;1.30;;;1.05;;
18102;SDS011;9178;51.120;6.192;2023-07-29T15:04:43;0.70;;;0.70;;
18102;SDS011;9178;51.120;6.192;2023-07-29T15:07:10;3.22;;;0.98;;
18102;SDS011;9178;51.120;6.192;2023-07-29T15:09:37;7.45;;;1.05;;
18102;SDS011;9178;51.120;6.192;2023-07-29T15:12:04;1.65;;;0.90;;